Time;durP1;ratioP1;P1;durP2;ratioP2;P2;SDS_P1;SDS_P2;PMS_P1;PMS_P2;Temp;Humidity;BMP_temperature;BMP_pressure;BME280_temperature;BME280_humidity;BME280_pressure;Samples;Min_cycle;Max_cycle;Signal;HPM_P1;HPM_P2
2023/04/04 00:00:35;;;;;;;2.03;0.90;;;;;;;1.05;100.00;99510.75;15282677;19;20028;-76
2023/04/04 00:06:03;;;;;;;1.60;0.80;;;;;;;1.07;100.00;99508.00;15289297;19;20015;-76
2023/04/04 00:11:28;;;;;;;1.90;1.00;;;;;;;1.03;100.00;99501.13;15287868;19;20031;-75
2023/04/04 00:16:52;;;;;;;1.85;1.10;;;;;;;1.02;100.00;99499.41;15288116;19;20027;-75
2023/04/04 00:22:19;;;;;;;2.75;1.30;;;;;;;1.04;100.00;99503.72;15285558;19;20018;-75
2023/04/04 00:27:52;;;;;;;1.20;1.00;;;;;;;1.03;100.00;99496.69;15284139;19;20026;-76
2023/04/04 00:33:17;;;;;;;2.25;1.00;;;;;;;1.01;100.00;99497.69;14771452;19;10000494;-75
2023/04/04 00:38:44;;;;;;;2.90;1.40;;;;;;;1.00;100.00;99490.69;15283046;19;20025;-75
2023/04/04 00:44:10;;;;;;;1.92;0.93;;;;;;;0.98;100.00;99481.94;15289807;19;20019;-76
2023/04/04 00:49:36;;;;;;;1.65;1.00;;;;;;;0.98;100.00;99487.22;15283384;19;20030;-76
2023/04/04 00:55:04;;;;;;;1.98;0.90;;;;;;;0.95;100.00;99487.38;15285428;19;20010;-75
2023/04/04 01:00:29;;;;;;;2.25;0.95;;;;;;;1.01;100.00;99473.78;15285808;19;20351;-75
2023/04/04 01:05:54;;;;;;;1.85;1.02;;;;;;;1.00;100.00;99472.09;15283906;19;20066;-76
2023/04/04 01:11:21;;;;;;;2.20;1.20;;;;;;;0.98;100.00;99476.63;15285596;19;20025;-75
2023/04/04 01:16:47;;;;;;;2.25;1.30;;;;;;;0.97;100.00;99469.59;15282640;19;20378;-75
2023/04/04 01:22:14;;;;;;;1.58;1.00;;;;;;;0.96;100.00;99473.19;15280406;19;20040;-76
2023/04/04 01:27:48;;;;;;;1.30;1.08;;;;;;;0.82;100.00;99460.59;15286411;19;20823;-79
2023/04/04 01:33:22;;;;;;;4.05;1.20;;;;;;;0.68;100.00;99463.88;15288132;19;20421;-79
2023/04/04 01:39:00;;;;;;;2.65;1.10;;;;;;;0.62;100.00;99462.38;15284685;19;20457;-77
2023/04/04 01:44:29;;;;;;;1.83;1.15;;;;;;;0.52;100.00;99464.63;15291067;19;20011;-78
2023/04/04 01:49:55;;;;;;;2.28;1.35;;;;;;;0.52;100.00;99459.31;15286730;19;20021;-77
2023/04/04 01:55:20;;;;;;;1.60;1.15;;;;;;;0.48;100.00;99462.16;15290508;19;20026;-79
2023/04/04 02:00:50;;;;;;;3.05;1.40;;;;;;;0.42;100.00;99455.34;15312891;19;20127;-79
2023/04/04 02:06:16;;;;;;;1.65;1.15;;;;;;;0.42;100.00;99458.00;15328813;19;20635;-76
2023/04/04 02:11:41;;;;;;;2.83;1.30;;;;;;;0.37;100.00;99454.72;15282103;19;20042;-78
2023/04/04 02:17:09;;;;;;;3.22;1.40;;;;;;;0.33;100.00;99455.78;15285876;19;20511;-77
2023/04/04 02:22:35;;;;;;;2.05;1.30;;;;;;;0.35;100.00;99451.28;15285580;19;20268;-75
2023/04/04 02:28:06;;;;;;;2.25;1.13;;;;;;;0.30;100.00;99454.97;15284933;19;20042;-77
2023/04/04 02:33:34;;;;;;;2.88;1.30;;;;;;;0.29;100.00;99447.97;15293017;19;20418;-75
2023/04/04 02:39:03;;;;;;;2.50;1.17;;;;;;;0.22;100.00;99451.00;15331217;19;20027;-78
2023/04/04 02:44:28;;;;;;;3.67;1.30;;;;;;;0.10;100.00;99439.16;15283189;19;20014;-76
2023/04/04 02:50:00;;;;;;;1.98;1.30;;;;;;;0.07;100.00;99433.97;15279095;19;20019;-77
2023/04/04 02:55:25;;;;;;;2.38;1.00;;;;;;;0.02;100.00;99438.63;15274414;19;20006;-76
2023/04/04 03:00:50;;;;;;;2.58;1.20;;;;;;;-0.05;100.00;99433.59;15281048;19;20018;-77
2023/04/04 03:06:22;;;;;;;2.63;1.35;;;;;;;-0.11;100.00;99428.59;15282835;19;20632;-75
2023/04/04 03:11:46;;;;;;;3.58;1.40;;;;;;;-0.15;100.00;99421.69;15279488;19;20019;-77
2023/04/04 03:17:13;;;;;;;4.32;1.38;;;;;;;-0.21;100.00;99416.69;15281407;19;20014;-78
2023/04/04 03:22:41;;;;;;;2.65;1.20;;;;;;;-0.22;100.00;99407.88;15292483;19;20033;-78
2023/04/04 03:28:18;;;;;;;3.60;1.50;;;;;;;-0.21;100.00;99409.59;15287866;19;20042;-78
2023/04/04 03:33:44;;;;;;;3.35;1.40;;;;;;;-0.25;100.00;99409.81;15296247;19;20010;-78
2023/04/04 03:39:12;;;;;;;2.40;1.20;;;;;;;-0.25;100.00;99410.69;15291346;19;20018;-77
2023/04/04 03:44:38;;;;;;;5.03;1.42;;;;;;;-0.29;100.00;99400.28;15295455;19;20751;-78
2023/04/04 03:50:11;;;;;;;3.35;1.40;;;;;;;-0.29;100.00;99402.94;15288005;19;20022;-78
2023/04/04 03:55:42;;;;;;;2.53;1.42;;;;;;;-0.28;100.00;99402.00;15296345;19;20010;-78
2023/04/04 04:01:08;;;;;;;4.63;1.40;;;;;;;-0.29;100.00;99397.66;15291875;19;20015;-77
2023/04/04 04:06:33;;;;;;;3.75;1.50;;;;;;;-0.35;100.00;99390.81;15292597;19;20031;-78
2023/04/04 04:12:00;;;;;;;3.35;1.60;;;;;;;-0.34;100.00;99392.53;15292792;19;20020;-77
2023/04/04 04:17:25;;;;;;;5.03;1.60;;;;;;;-0.37;100.00;99401.47;15293418;19;20017;-78
2023/04/04 04:22:53;;;;;;;4.70;1.40;;;;;;;-0.39;100.00;99400.69;15293468;19;20014;-77
2023/04/04 04:28:29;;;;;;;4.75;1.67;;;;;;;-0.41;100.00;99399.88;15286940;19;20014;-77
2023/04/04 04:33:58;;;;;;;3.35;1.40;;;;;;;-0.46;100.00;99401.88;15296620;19;20035;-77
2023/04/04 04:39:26;;;;;;;4.47;1.50;;;;;;;-0.42;100.00;99403.47;15291811;19;20059;-76
2023/04/04 04:45:24;;;;;;;5.70;1.60;;;;;;;-0.23;100.00;99394.72;15294399;19;20011;-77
2023/04/04 04:50:52;;;;;;;5.13;1.67;;;;;;;-0.43;100.00;99401.75;15287821;19;20007;-77
2023/04/04 04:56:27;;;;;;;3.03;1.50;;;;;;;-0.48;100.00;99404.63;15294785;19;20010;-76
2023/04/04 05:01:57;;;;;;;4.80;1.48;;;;;;;-0.45;100.00;99402.75;15290564;19;20023;-76
2023/04/04 05:07:26;;;;;;;4.78;1.88;;;;;;;-0.43;100.00;99417.66;15295013;19;20392;-76
2023/04/04 05:12:53;;;;;;;3.50;1.60;;;;;;;-0.51;100.00;99404.75;15298439;19;20022;-76
2023/04/04 05:18:27;;;;;;;2.83;1.55;;;;;;;-0.48;100.00;99423.16;15317695;19;20006;-77
2023/04/04 05:23:54;;;;;;;2.92;1.50;;;;;;;-0.43;100.00;99415.00;15329199;19;20548;-77
2023/04/04 05:29:21;;;;;;;3.22;1.67;;;;;;;-0.40;100.00;99425.44;15288378;19;20082;-77
2023/04/04 05:34:49;;;;;;;5.53;2.15;;;;;;;-0.37;100.00;99432.41;15292289;19;20018;-76
2023/04/04 05:40:18;;;;;;;4.50;1.80;;;;;;;-0.33;100.00;99434.84;15286088;19;20260;-78
2023/04/04 05:45:51;;;;;;;3.92;1.70;;;;;;;-0.28;100.00;99437.28;15288284;19;20284;-76
2023/04/04 05:51:26;;;;;;;3.83;1.60;;;;;;;-0.23;100.00;99437.09;15285455;19;20027;-77
2023/04/04 05:56:55;;;;;;;5.65;2.17;;;;;;;-0.18;100.00;99432.47;15289200;19;20014;-77
2023/04/04 06:02:32;;;;;;;4.20;1.65;;;;;;;-0.20;100.00;99439.59;15318509;19;20014;-79
2023/04/04 06:08:03;;;;;;;5.50;1.88;;;;;;;-0.12;100.00;99440.13;15319950;19;20010;-76
2023/04/04 06:13:28;;;;;;;5.07;2.50;;;;;;;-0.14;100.00;99449.06;15287597;19;20020;-77
2023/04/04 06:18:58;;;;;;;6.18;2.20;;;;;;;-0.03;100.00;99442.34;15283262;19;20016;-77
2023/04/04 06:24:26;;;;;;;3.75;1.70;;;;;;;0.01;100.00;99450.16;15286802;19;20012;-76
2023/04/04 06:29:55;;;;;;;4.38;1.95;;;;;;;0.07;100.00;99447.22;15275553;19;20014;-76
2023/04/04 06:35:20;;;;;;;2.95;1.77;;;;;;;0.14;100.00;99459.28;15281988;19;20015;-77
2023/04/04 06:40:48;;;;;;;6.68;2.00;;;;;;;0.19;100.00;99465.22;15280950;19;20018;-78
2023/04/04 06:46:13;;;;;;;5.18;2.20;;;;;;;0.27;100.00;99457.81;15285091;19;20029;-77
2023/04/04 06:51:38;;;;;;;6.40;2.05;;;;;;;0.34;100.00;99455.72;15281802;19;20496;-78
2023/04/04 06:57:05;;;;;;;7.05;2.65;;;;;;;0.39;100.00;99448.41;15276557;19;20015;-78
2023/04/04 07:02:30;;;;;;;4.32;2.53;;;;;;;0.48;100.00;99449.78;15273187;19;20018;-77
2023/04/04 07:07:55;;;;;;;5.00;2.53;;;;;;;0.60;100.00;99446.53;15275206;19;20019;-77
2023/04/04 07:13:23;;;;;;;4.57;2.40;;;;;;;0.71;100.00;99451.31;15283434;19;20481;-77
2023/04/04 07:18:58;;;;;;;3.58;2.35;;;;;;;0.82;100.00;99456.13;15286290;19;20014;-77
2023/04/04 07:24:27;;;;;;;4.32;2.50;;;;;;;0.82;100.00;99450.81;15286902;19;20473;-75
2023/04/04 07:29:54;;;;;;;4.20;2.40;;;;;;;1.00;100.00;99453.53;15284231;19;20039;-77
2023/04/04 07:35:20;;;;;;;4.93;2.60;;;;;;;1.04;100.00;99460.38;15285283;19;20703;-77
2023/04/04 07:40:46;;;;;;;3.60;2.50;;;;;;;0.96;100.00;99451.94;15285244;19;20014;-77
2023/04/04 07:46:14;;;;;;;4.85;2.40;;;;;;;1.15;100.00;99452.75;15290381;19;20022;-77
2023/04/04 07:51:43;;;;;;;;;;;;;;;1.36;100.00;99449.94;15303290;19;20011;-77
2023/04/04 07:57:16;;;;;;;4.88;2.03;;;;;;;1.45;100.00;99449.50;15330238;19;19926;-78
2023/04/04 08:02:44;;;;;;;3.95;2.35;;;;;;;1.49;100.00;99450.22;15348243;19;20015;-77
2023/04/04 08:08:09;;;;;;;6.13;2.10;;;;;;;1.76;100.00;99447.91;15327714;19;20032;-78
2023/04/04 08:13:33;;;;;;;3.97;2.10;;;;;;;1.69;100.00;99441.22;15309127;19;20018;-77
2023/04/04 08:19:02;;;;;;;4.05;2.00;;;;;;;1.88;100.00;99434.94;15298644;19;20011;-77
2023/04/04 08:24:27;;;;;;;4.93;2.00;;;;;;;2.00;100.00;99439.59;15306599;19;20105;-77
2023/04/04 08:29:52;;;;;;;3.80;1.80;;;;;;;2.22;100.00;99434.00;15308137;19;20010;-77
2023/04/04 08:35:25;;;;;;;4.93;1.90;;;;;;;2.07;100.00;99442.78;15314037;19;20369;-76
2023/04/04 08:40:54;;;;;;;3.10;1.80;;;;;;;2.18;100.00;99432.44;15305220;19;20014;-77
2023/04/04 08:46:30;;;;;;;4.88;1.85;;;;;;;2.25;100.00;99424.97;15304719;19;20050;-75
2023/04/04 08:52:00;;;;;;;3.28;1.70;;;;;;;2.60;100.00;99432.81;15297294;19;20067;-77
2023/04/04 08:57:25;;;;;;;4.00;1.63;;;;;;;2.87;100.00;99432.22;15302549;19;20090;-78
2023/04/04 09:02:59;;;;;;;3.30;1.50;;;;;;;2.76;100.00;99433.66;15286523;19;20042;-78
2023/04/04 09:08:27;;;;;;;3.75;1.60;;;;;;;3.12;100.00;99430.81;15289653;19;20029;-76
2023/04/04 09:13:56;;;;;;;3.58;1.60;;;;;;;2.92;100.00;99439.00;15288567;19;20013;-78
2023/04/04 09:19:20;;;;;;;3.88;1.33;;;;;;;2.94;100.00;99438.91;15292750;19;20523;-77
2023/04/04 09:24:50;;;;;;;2.63;1.20;;;;;;;2.68;100.00;99430.56;15303246;19;20018;-77
2023/04/04 09:30:17;;;;;;;1.58;1.08;;;;;;;2.89;100.00;99435.63;15279439;19;20014;-76
2023/04/04 09:35:46;;;;;;;1.83;1.10;;;;;;;3.19;100.00;99429.50;15283582;19;20035;-77
2023/04/04 09:41:14;;;;;;;2.05;1.00;;;;;;;3.23;100.00;99437.22;15279252;19;20034;-77
2023/04/04 09:46:40;;;;;;;2.20;0.98;;;;;;;3.37;100.00;99438.22;15281493;19;20530;-76
2023/04/04 09:52:05;;;;;;;2.83;1.05;;;;;;;3.24;100.00;99427.41;15278971;19;20011;-76
2023/04/04 09:57:36;;;;;;;1.63;1.00;;;;;;;2.98;100.00;99437.78;15283710;19;20007;-77
2023/04/04 10:03:00;;;;;;;1.87;0.97;;;;;;;3.26;100.00;99441.50;15283594;19;20019;-76
2023/04/04 10:08:26;;;;;;;1.88;1.08;;;;;;;3.21;100.00;99435.59;15318177;19;20275;-75
2023/04/04 10:13:53;;;;;;;1.75;0.90;;;;;;;3.39;100.00;99431.84;15306001;19;20030;-77
2023/04/04 10:19:19;;;;;;;2.75;1.00;;;;;;;3.44;97.98;99430.72;15279776;19;20020;-76
2023/04/04 10:24:43;;;;;;;1.45;0.85;;;;;;;3.76;100.00;99425.25;15285130;19;20013;-76
2023/04/04 10:30:12;;;;;;;1.63;0.80;;;;;;;3.81;91.43;99420.53;15277811;19;20016;-76
2023/04/04 10:35:38;;;;;;;1.85;1.05;;;;;;;3.95;100.00;99415.16;15284188;19;20331;-77
2023/04/04 10:41:06;;;;;;;2.67;1.15;;;;;;;3.74;100.00;99398.72;15279727;19;20015;-75
2023/04/04 10:46:34;;;;;;;2.97;1.23;;;;;;;3.47;99.07;99407.41;15275633;19;20017;-75
2023/04/04 10:52:00;;;;;;;1.83;1.20;;;;;;;3.38;100.00;99405.31;15282264;19;20018;-78
2023/04/04 10:57:27;;;;;;;3.15;1.25;;;;;;;3.43;100.00;99405.88;15315912;19;20018;-75
2023/04/04 11:02:57;;;;;;;2.78;1.20;;;;;;;3.42;100.00;99397.97;15305355;19;20010;-76
2023/04/04 11:08:24;;;;;;;2.30;1.30;;;;;;;3.34;100.00;99393.09;15273656;19;20821;-76
2023/04/04 11:14:02;;;;;;;3.28;1.20;;;;;;;3.34;100.00;99386.00;15276442;19;20019;-76
2023/04/04 11:19:32;;;;;;;2.17;1.10;;;;;;;3.32;100.00;99387.88;15267164;19;20656;-76
2023/04/04 11:25:01;;;;;;;2.83;1.13;;;;;;;3.35;100.00;99386.84;15274059;19;20011;-76
2023/04/04 11:30:27;;;;;;;2.17;1.10;;;;;;;3.37;100.00;99396.44;15269568;19;20078;-76
2023/04/04 11:35:59;;;;;;;3.22;1.27;;;;;;;3.65;100.00;99378.78;15277174;19;20363;-76
2023/04/04 11:41:25;;;;;;;5.00;1.20;;;;;;;3.85;100.00;99387.38;15285977;19;20037;-76
2023/04/04 11:46:56;;;;;;;3.13;1.13;;;;;;;4.10;100.00;99375.19;15289226;19;20633;-76
2023/04/04 11:52:25;;;;;;;3.10;1.10;;;;;;;4.38;100.00;99360.94;15279977;19;20010;-76
2023/04/04 11:57:51;;;;;;;3.25;1.00;;;;;;;4.38;89.36;99360.09;15291072;19;20283;-75
2023/04/04 12:03:18;;;;;;;1.63;0.80;;;;;;;4.48;93.85;99347.88;15285235;19;20015;-76
2023/04/04 12:08:46;;;;;;;1.38;0.90;;;;;;;4.82;87.29;99342.97;15287912;19;20034;-76
2023/04/04 12:14:11;;;;;;;2.30;1.00;;;;;;;4.70;76.85;99346.47;15288767;19;20014;-76
2023/04/04 12:19:39;;;;;;;2.00;1.00;;;;;;;4.58;74.40;99340.97;15277508;19;20019;-76
2023/04/04 12:25:14;;;;;;;2.78;0.98;;;;;;;4.48;68.73;99339.88;15277200;19;20015;-76
2023/04/04 12:30:40;;;;;;;1.60;0.80;;;;;;;4.90;81.83;99332.63;15283664;19;20034;-76
2023/04/04 12:36:05;;;;;;;1.27;0.70;;;;;;;5.12;80.17;99325.84;15287941;19;20567;-76
2023/04/04 12:41:34;;;;;;;1.65;0.90;;;;;;;5.22;75.53;99318.94;15278230;19;20014;-75
2023/04/04 12:47:00;;;;;;;1.83;1.00;;;;;;;5.45;73.17;99324.53;15280557;19;20389;-75
2023/04/04 12:52:31;;;;;;;3.10;0.98;;;;;;;5.37;71.26;99324.16;15276598;19;20020;-76
2023/04/04 12:57:59;;;;;;;1.60;0.93;;;;;;;4.65;67.39;99325.41;15277846;19;20370;-76
2023/04/04 13:03:26;;;;;;;2.50;0.80;;;;;;;4.87;80.01;99311.50;15279319;19;20020;-75
2023/04/04 13:08:58;;;;;;;1.98;0.80;;;;;;;5.19;78.65;99299.56;15281710;19;20015;-75
2023/04/04 13:14:25;;;;;;;1.47;0.90;;;;;;;5.45;71.22;99299.59;15282286;19;20362;-75
2023/04/04 13:19:50;;;;;;;3.53;1.00;;;;;;;5.30;78.42;99294.34;15280058;19;20006;-75
2023/04/04 13:25:15;;;;;;;1.40;0.80;;;;;;;5.20;73.04;99293.28;15284480;19;20018;-75
2023/04/04 13:30:47;;;;;;;1.02;0.80;;;;;;;5.07;71.09;99290.59;15278294;19;20101;-76
2023/04/04 13:36:13;;;;;;;2.15;0.75;;;;;;;5.31;75.06;99279.19;15282852;19;20222;-77
2023/04/04 13:41:36;;;;;;;5.15;0.98;;;;;;;6.10;73.51;99271.81;15288239;19;20085;-78
2023/04/04 13:47:04;;;;;;;1.20;0.90;;;;;;;5.49;61.11;99272.53;15291885;19;20018;-76
2023/04/04 13:52:29;;;;;;;2.38;0.93;;;;;;;5.95;66.24;99262.19;15283819;19;20017;-77
2023/04/04 13:57:54;;;;;;;2.30;0.88;;;;;;;5.07;65.19;99261.22;15290964;19;20019;-75
2023/04/04 14:03:22;;;;;;;2.40;0.90;;;;;;;4.81;69.22;99261.16;15348378;19;20017;-76
2023/04/04 14:08:47;;;;;;;2.30;0.98;;;;;;;4.71;68.86;99260.09;15273572;19;20097;-77
2023/04/04 14:14:12;;;;;;;2.47;1.10;;;;;;;4.36;69.04;99261.47;15283658;19;20022;-76
2023/04/04 14:19:40;;;;;;;4.32;1.05;;;;;;;4.68;67.67;99255.81;15337602;19;20009;-74
2023/04/04 14:25:05;;;;;;;2.72;1.17;;;;;;;5.19;70.72;99254.16;15290917;19;20062;-76
2023/04/04 14:30:30;;;;;;;1.25;0.80;;;;;;;5.42;64.00;99252.56;15285108;19;20014;-77
2023/04/04 14:35:58;;;;;;;1.20;0.90;;;;;;;6.49;64.15;99258.28;15285970;19;20090;-75
2023/04/04 14:41:22;;;;;;;1.70;1.00;;;;;;;6.19;60.16;99246.22;15281992;19;20086;-77
2023/04/04 14:46:47;;;;;;;2.42;1.20;;;;;;;6.15;66.20;99242.94;15279469;19;20021;-77
2023/04/04 14:52:15;;;;;;;2.72;1.00;;;;;;;6.00;61.64;99236.00;15277237;19;20357;-76
2023/04/04 14:57:40;;;;;;;1.73;0.80;;;;;;;6.61;63.67;99227.06;15272916;19;20050;-76
2023/04/04 15:03:20;;;;;;;1.55;1.00;;;;;;;6.37;61.75;99219.06;15266779;19;20049;-75
2023/04/04 15:08:49;;;;;;;2.58;1.02;;;;;;;5.29;62.18;99216.97;15273763;19;20582;-76
2023/04/04 15:14:16;;;;;;;2.10;1.10;;;;;;;5.11;61.66;99213.78;15288703;19;20024;-74
2023/04/04 15:19:43;;;;;;;1.70;0.90;;;;;;;5.06;66.26;99212.25;15289462;19;20066;-76
2023/04/04 15:25:11;;;;;;;2.80;1.00;;;;;;;5.23;66.99;99208.41;15288542;19;20022;-75
2023/04/04 15:30:37;;;;;;;2.55;0.88;;;;;;;5.31;67.05;99204.38;15285990;19;20091;-76
2023/04/04 15:36:01;;;;;;;1.58;0.85;;;;;;;5.85;64.26;99209.38;15285851;19;20070;-76
2023/04/04 15:41:29;;;;;;;1.60;0.85;;;;;;;6.27;64.25;99203.69;15289850;19;20042;-75
2023/04/04 15:46:53;;;;;;;0.90;0.80;;;;;;;6.88;62.25;99205.34;15294865;19;20107;-75
2023/04/04 15:52:18;;;;;;;0.93;0.70;;;;;;;6.98;60.82;99201.97;15288920;19;20013;-76
2023/04/04 15:57:45;;;;;;;2.13;0.88;;;;;;;6.61;58.84;99208.34;15290826;19;20053;-77
2023/04/04 16:03:11;;;;;;;1.50;0.75;;;;;;;6.34;60.16;99197.88;15289477;19;20082;-78
2023/04/04 16:08:35;;;;;;;1.30;0.80;;;;;;;6.08;57.66;99198.84;15287183;19;20477;-77
2023/04/04 16:14:04;;;;;;;1.55;1.00;;;;;;;5.83;62.83;99194.41;15293378;19;20014;-77
2023/04/04 16:19:29;;;;;;;0.90;0.80;;;;;;;5.50;59.36;99198.56;15288406;19;20025;-77
2023/04/04 16:24:54;;;;;;;2.08;0.90;;;;;;;5.05;61.77;99183.00;15287363;19;20015;-77
2023/04/04 16:30:28;;;;;;;0.75;0.70;;;;;;;6.00;65.93;99183.34;15285539;19;20018;-75
2023/04/04 16:35:53;;;;;;;1.20;0.80;;;;;;;6.84;66.04;99173.56;15294962;19;20014;-75
2023/04/04 16:41:19;;;;;;;1.35;0.82;;;;;;;7.20;62.45;99164.47;15290009;19;20090;-74
2023/04/04 16:46:53;;;;;;;2.20;0.80;;;;;;;7.33;58.27;99159.00;15296185;19;20003;-78
2023/04/04 16:52:18;;;;;;;1.20;0.80;;;;;;;7.42;60.37;99167.28;15287587;19;20031;-75
2023/04/04 16:57:45;;;;;;;1.00;0.80;;;;;;;7.43;59.47;99166.31;15352659;19;20029;-73
2023/04/04 17:03:13;;;;;;;1.88;1.00;;;;;;;7.36;58.71;99163.25;15358658;19;20013;-77
2023/04/04 17:08:39;;;;;;;2.33;1.40;;;;;;;6.90;63.29;99163.25;15336120;19;20014;-75
2023/04/04 17:14:04;;;;;;;2.28;1.20;;;;;;;6.41;61.37;99165.16;15295170;19;20025;-77
2023/04/04 17:19:33;;;;;;;2.15;1.00;;;;;;;6.10;63.11;99164.81;15293107;19;20539;-75
2023/04/04 17:24:58;;;;;;;1.65;1.00;;;;;;;6.01;61.77;99162.81;15297057;19;20370;-78
2023/04/04 17:30:30;;;;;;;1.92;1.10;;;;;;;5.78;63.15;99159.13;15291222;19;20018;-76
2023/04/04 17:35:57;;;;;;;1.57;0.90;;;;;;;5.54;62.60;99159.94;15289044;19;20502;-78
2023/04/04 17:41:23;;;;;;;1.02;0.70;;;;;;;5.15;63.29;99151.16;15287496;19;20019;-74
2023/04/04 17:46:48;;;;;;;1.40;0.80;;;;;;;4.78;60.34;99154.59;15282233;19;20404;-76
2023/04/04 17:52:23;;;;;;;1.77;1.02;;;;;;;4.37;59.88;99150.28;15270429;19;20015;-46
2023/04/04 17:57:47;;;;;;;1.45;0.90;;;;;;;4.12;63.29;99157.25;15273873;19;20022;-44
2023/04/04 18:03:13;;;;;;;2.03;1.02;;;;;;;3.90;66.47;99156.03;15273372;19;20031;-46
2023/04/04 18:08:41;;;;;;;1.90;1.08;;;;;;;3.63;65.84;99162.19;15269001;19;20066;-45
2023/04/04 18:14:06;;;;;;;1.60;1.05;;;;;;;3.35;69.27;99155.09;15272135;19;20044;-45
2023/04/04 18:19:30;;;;;;;3.70;1.10;;;;;;;3.03;76.74;99168.63;15266926;19;20014;-44
2023/04/04 18:24:59;;;;;;;4.05;1.10;;;;;;;2.87;87.15;99164.25;15266934;19;20014;-44
2023/04/04 18:30:25;;;;;;;2.53;1.00;;;;;;;2.66;85.91;99161.06;15273627;19;20018;-45
2023/04/04 18:35:50;;;;;;;1.80;0.98;;;;;;;2.54;90.82;99161.81;15273573;19;20086;-44
2023/04/04 18:41:17;;;;;;;3.33;0.90;;;;;;;2.44;91.46;99162.38;15270196;19;20020;-46
2023/04/04 18:46:43;;;;;;;2.25;1.00;;;;;;;2.38;94.09;99161.88;15269280;19;20018;-47
2023/04/04 18:52:14;;;;;;;1.33;1.00;;;;;;;2.30;92.84;99170.28;15265501;19;20025;-45
2023/04/04 18:57:43;;;;;;;3.43;1.00;;;;;;;2.21;90.71;99170.84;15268093;19;20026;-45
2023/04/04 19:03:08;;;;;;;2.15;1.00;;;;;;;2.19;94.92;99172.72;15272264;19;20279;-45
2023/04/04 19:08:35;;;;;;;2.22;1.10;;;;;;;2.17;93.31;99169.34;15267986;19;20010;-47
2023/04/04 19:14:03;;;;;;;2.45;1.30;;;;;;;2.09;96.34;99167.97;15271901;19;20029;-42
2023/04/04 19:19:35;;;;;;;1.48;1.10;;;;;;;2.01;98.72;99164.91;15281844;19;20085;-82
2023/04/04 19:25:00;;;;;;;4.47;1.40;;;;;;;1.97;100.00;99173.97;15288503;19;20488;-79
2023/04/04 19:30:51;;;;;;;2.63;1.10;;;;;;;1.94;100.00;99163.53;15289636;19;20015;-81
2023/04/04 19:36:17;;;;;;;3.03;1.20;;;;;;;1.88;100.00;99156.78;15294425;19;20014;-77
2023/04/04 19:41:43;;;;;;;2.47;1.55;;;;;;;1.77;100.00;99156.50;15288618;19;20665;-79
2023/04/04 19:47:11;;;;;;;2.83;1.50;;;;;;;1.53;100.00;99162.25;15298795;19;20014;-79
2023/04/04 19:52:36;;;;;;;2.97;1.70;;;;;;;1.32;100.00;99164.34;15315151;19;20015;-80
2023/04/04 19:58:00;;;;;;;4.45;2.20;;;;;;;1.21;100.00;99165.78;15305791;19;20041;-79
2023/04/04 20:03:39;;;;;;;4.15;2.17;;;;;;;1.14;100.00;99169.69;15305976;19;20014;-79
2023/04/04 20:09:08;;;;;;;4.75;2.65;;;;;;;1.04;100.00;99161.38;15297120;19;20014;-80
2023/04/04 20:14:33;;;;;;;4.43;2.17;;;;;;;0.96;100.00;99170.69;15316694;19;20022;-81
2023/04/04 20:20:07;;;;;;;2.97;2.38;;;;;;;0.84;100.00;99167.75;15315966;19;20053;-81
2023/04/04 20:25:43;;;;;;;5.38;2.80;;;;;;;0.78;100.00;99157.44;15312830;19;20010;-81
2023/04/04 20:31:10;;;;;;;4.05;2.78;;;;;;;0.74;100.00;99161.22;15306108;19;20010;-79
2023/04/04 20:36:42;;;;;;;3.58;2.78;;;;;;;0.69;100.00;99165.91;15306877;19;20017;-80
2023/04/04 20:42:07;;;;;;;3.50;2.70;;;;;;;0.61;100.00;99166.28;15300225;19;20025;-80
2023/04/04 20:47:42;;;;;;;4.38;2.40;;;;;;;0.60;100.00;99175.19;15285674;19;20018;-79
2023/04/04 20:53:11;;;;;;;3.78;2.00;;;;;;;0.55;100.00;99175.41;15349417;19;20003;-79
2023/04/04 20:58:35;;;;;;;3.08;2.20;;;;;;;0.50;100.00;99172.16;15291348;19;21822;-80
2023/04/04 21:04:00;;;;;;;4.03;1.83;;;;;;;0.42;100.00;99176.97;15290676;19;20082;-80
2023/04/04 21:09:28;;;;;;;2.80;1.77;;;;;;;0.41;100.00;99170.84;15292627;19;20014;-79
2023/04/04 21:14:54;;;;;;;2.70;1.88;;;;;;;0.40;100.00;99176.22;15302724;19;20082;-80
2023/04/04 21:21:05;;;;;;;2.47;1.90;;;;;;;0.34;100.00;99171.22;15299446;19;20014;-81
2023/04/04 21:26:36;;;;;;;2.97;1.80;;;;;;;0.30;100.00;99171.38;15294892;19;20085;-78
2023/04/04 21:32:08;;;;;;;3.08;1.80;;;;;;;0.22;100.00;99170.91;15293484;19;20022;-80
2023/04/04 21:37:34;;;;;;;3.30;2.00;;;;;;;0.14;100.00;99170.44;15295520;19;20433;-80
2023/04/04 21:43:02;;;;;;;2.63;1.60;;;;;;;0.05;100.00;99166.47;15298112;19;20046;-79
2023/04/04 21:48:26;;;;;;;2.63;1.58;;;;;;;-0.02;100.00;99160.59;15300570;19;20021;-80
2023/04/04 21:53:51;;;;;;;2.85;1.55;;;;;;;-0.06;100.00;99161.69;15300520;19;20015;-80
2023/04/04 21:59:19;;;;;;;2.38;1.80;;;;;;;-0.10;100.00;99156.59;15297087;19;20014;-79
2023/04/04 22:04:45;;;;;;;2.75;1.60;;;;;;;-0.19;100.00;99161.44;15293245;19;20034;-80
2023/04/04 22:10:12;;;;;;;1.77;1.30;;;;;;;-0.22;100.00;99161.56;15295428;19;20035;-80
2023/04/04 22:15:41;;;;;;;1.90;1.50;;;;;;;-0.27;100.00;99154.78;15292639;19;20002;-81
2023/04/04 22:21:06;;;;;;;2.65;1.52;;;;;;;-0.30;100.00;99149.66;15293648;19;20041;-81
2023/04/04 22:26:31;;;;;;;3.08;1.80;;;;;;;-0.37;100.00;99149.94;15293715;19;20021;-80
2023/04/04 22:31:59;;;;;;;4.38;1.85;;;;;;;-0.46;100.00;99142.44;15298952;19;20026;-80
2023/04/04 22:37:27;;;;;;;4.55;2.13;;;;;;;-0.49;100.00;99134.66;15294118;19;20010;-81
2023/04/04 22:42:51;;;;;;;3.92;2.28;;;;;;;-0.53;100.00;99126.00;15298247;19;21306;-80
2023/04/04 22:48:21;;;;;;;3.00;2.13;;;;;;;-0.56;100.00;99134.09;15299234;19;20018;-79
2023/04/04 22:53:46;;;;;;;3.72;1.90;;;;;;;-0.58;100.00;99135.09;15299484;19;20570;-79
2023/04/04 22:59:11;;;;;;;3.50;1.73;;;;;;;-0.62;100.00;99127.28;15293315;19;20032;-80
2023/04/04 23:04:39;;;;;;;3.75;1.90;;;;;;;-0.65;100.00;99108.91;15293967;19;20359;-80
2023/04/04 23:10:04;;;;;;;4.68;2.10;;;;;;;-0.66;100.00;99111.63;15273881;19;20010;-79
2023/04/04 23:15:31;;;;;;;3.03;1.70;;;;;;;-0.71;100.00;99121.59;15296297;19;20023;-81
2023/04/04 23:20:59;;;;;;;2.60;1.70;;;;;;;-0.76;100.00;99113.00;15294108;19;20372;-80
2023/04/04 23:26:24;;;;;;;3.15;1.50;;;;;;;-0.83;100.00;99113.31;15241429;19;20039;-79
2023/04/04 23:31:49;;;;;;;3.50;1.60;;;;;;;-0.85;100.00;99103.72;15314017;19;20018;-79
2023/04/04 23:37:16;;;;;;;5.63;1.55;;;;;;;-0.88;100.00;99109.16;15347249;19;20022;-78
2023/04/04 23:42:42;;;;;;;2.53;1.70;;;;;;;-0.97;100.00;99103.34;15315311;19;20014;-79
2023/04/04 23:48:08;;;;;;;3.47;1.95;;;;;;;-1.05;100.00;99102.88;15304097;19;20010;-79
2023/04/04 23:54:05;;;;;;;3.55;1.83;;;;;;;-1.14;100.00;99101.50;15329720;19;20082;-85
2023/04/04 23:59:33;;;;;;;3.67;1.75;;;;;;;-1.18;100.00;99096.44;15371593;19;20024;-86
